Aérodrome :
LOGIN :

S'inscrire | Disclaimer

   EN    FR    IT 

 










Légende :    VFR   VFR Marginal   IFR   IFR Intensif   IFR Très Intensif
Visi : 
Plafond : 
>= 8 km
>= 3000ft
5 à 8 km
1000 à 3000 ft
1500m à 5 km
500 à 1000 ft
800 à 1500m
200 à 500 ft
< 800m
< 200 ft
Symboles :   Orages  Brouillard  Fortes neiges  Fortes précipitations  Vent > 20 kt
SIGMETs :   Divers  Orages  Givrage  Turbulence  Onde Orograph.  Cendres Volcan.






- Altitude de l'aérodrome : 1487 ft
- Code IATA : MUC


EDDM - München Franz Josef Strauss

DERNIER METAR :
  • 141050Z 02007KT 320V070 9999 -SHSN BKN045TCU 05/M06 Q1026 NOSIG

METARs EXPIRÉS :
  • 141020Z 06004KT 360V120 9999 -SHSN BKN040TCU 05/M04 Q1026 NOSIG
  • 140950Z 02006KT 340V070 9999 -SHSN BKN040TCU 05/M03 Q1026 NOSIG
  • 140920Z VRB04KT 9999 BKN033 05/M03 Q1026 NOSIG
  • 140850Z 04003KT 270V080 9999 SCT030 05/M02 Q1027 NOSIG
  • 140820Z VRB02KT 9999 FEW021 04/M01 Q1027 NOSIG

TAF TAF EDDM
Valide du 14 à 06h jusqu'au 15 à 12h UTC


140500Z 1406/1512 26005KT 9999 FEW020
BECMG 1408/1410 34005KT
PROB30
TEMPO 1411/1416 3000 -SHSN SCT035TCU
BECMG 1420/1422 VRB02KT
BECMG 1506/1508 35005KT



MET'MAP, la Météo Aéronautique d'un coup d'oeil ! - Copyright ORBIFLY Décembre 2007 - Disclaimer

ORBIFLY MET'MAP TEAM :

Programmation & Développement : Alexandra Zaïnal
Sur une idée originale de : Baudouin d'Aumeries
Assistance à la programmation : Marc-Olivier Méhu
Soutien technique & logistique : Manuel Goepfert

Contact : metmap@orbifly.com




SOURCES & CREDITS :

   NOAA